sensor_id;sensor_type;location;lat;lon;timestamp;P1;durP1;ratioP1;P2;durP2;ratioP2
51810;SDS011;52468;40.116;18.296;2023-08-12T00:00:46;14.03;;;11.77;;
51810;SDS011;52468;40.116;18.296;2023-08-12T00:03:14;13.07;;;11.47;;
51810;SDS011;52468;40.116;18.296;2023-08-12T00:05:43;15.07;;;10.43;;
51810;SDS011;52468;40.116;18.296;2023-08-12T00:08:12;11.37;;;9.97;;
51810;SDS011;52468;40.116;18.296;2023-08-12T00:10:40;12.47;;;10.53;;
51810;SDS011;52468;40.116;18.296;2023-08-12T00:13:08;12.50;;;10.83;;
51810;SDS011;52468;40.116;18.296;2023-08-12T00:15:36;15.90;;;10.97;;
51810;SDS011;52468;40.116;18.296;2023-08-12T00:18:04;17.37;;;11.90;;
51810;SDS011;52468;40.116;18.296;2023-08-12T00:20:33;17.80;;;11.90;;
51810;SDS011;52468;40.116;18.296;2023-08-12T00:23:01;15.87;;;10.33;;
51810;SDS011;52468;40.116;18.296;2023-08-12T00:25:30;12.07;;;10.87;;
51810;SDS011;52468;40.116;18.296;2023-08-12T00:27:58;12.57;;;11.20;;
51810;SDS011;52468;40.116;18.296;2023-08-12T00:30:26;14.23;;;11.80;;
51810;SDS011;52468;40.116;18.296;2023-08-12T00:32:55;12.27;;;11.07;;
51810;SDS011;52468;40.116;18.296;2023-08-12T00:35:23;11.53;;;10.10;;
51810;SDS011;52468;40.116;18.296;2023-08-12T00:37:51;22.00;;;12.20;;
51810;SDS011;52468;40.116;18.296;2023-08-12T00:40:19;12.80;;;10.97;;
51810;SDS011;52468;40.116;18.296;2023-08-12T00:42:47;15.13;;;11.63;;
51810;SDS011;52468;40.116;18.296;2023-08-12T00:45:14;15.20;;;12.10;;
51810;SDS011;52468;40.116;18.296;2023-08-12T00:47:42;15.07;;;11.03;;
51810;SDS011;52468;40.116;18.296;2023-08-12T00:50:11;14.87;;;11.40;;
51810;SDS011;52468;40.116;18.296;2023-08-12T00:52:42;17.23;;;10.80;;
51810;SDS011;52468;40.116;18.296;2023-08-12T00:55:12;17.93;;;12.00;;
51810;SDS011;52468;40.116;18.296;2023-08-12T00:57:41;16.03;;;11.53;;
51810;SDS011;52468;40.116;18.296;2023-08-12T01:00:09;12.07;;;10.20;;
51810;SDS011;52468;40.116;18.296;2023-08-12T01:02:37;13.73;;;9.97;;
51810;SDS011;52468;40.116;18.296;2023-08-12T01:05:05;12.83;;;10.23;;
51810;SDS011;52468;40.116;18.296;2023-08-12T01:07:34;13.37;;;10.17;;
51810;SDS011;52468;40.116;18.296;2023-08-12T01:10:02;17.73;;;11.13;;
51810;SDS011;52468;40.116;18.296;2023-08-12T01:12:40;16.83;;;10.60;;
51810;SDS011;52468;40.116;18.296;2023-08-12T01:15:29;12.37;;;11.07;;
51810;SDS011;52468;40.116;18.296;2023-08-12T01:17:58;13.77;;;10.33;;
51810;SDS011;52468;40.116;18.296;2023-08-12T01:20:29;13.97;;;11.80;;
51810;SDS011;52468;40.116;18.296;2023-08-12T01:22:59;13.77;;;10.43;;
51810;SDS011;52468;40.116;18.296;2023-08-12T01:25:41;13.05;;;11.23;;
51810;SDS011;52468;40.116;18.296;2023-08-12T01:28:09;12.03;;;9.63;;
51810;SDS011;52468;40.116;18.296;2023-08-12T01:30:57;15.73;;;10.60;;
51810;SDS011;52468;40.116;18.296;2023-08-12T01:33:45;16.07;;;10.57;;
51810;SDS011;52468;40.116;18.296;2023-08-12T01:36:20;13.53;;;10.13;;
51810;SDS011;52468;40.116;18.296;2023-08-12T01:38:48;15.20;;;10.77;;
51810;SDS011;52468;40.116;18.296;2023-08-12T01:41:18;15.40;;;11.50;;
51810;SDS011;52468;40.116;18.296;2023-08-12T01:43:49;12.63;;;9.80;;
51810;SDS011;52468;40.116;18.296;2023-08-12T01:46:17;16.20;;;8.93;;
51810;SDS011;52468;40.116;18.296;2023-08-12T01:48:45;11.77;;;9.13;;
51810;SDS011;52468;40.116;18.296;2023-08-12T01:51:13;12.17;;;9.43;;
51810;SDS011;52468;40.116;18.296;2023-08-12T01:53:41;12.83;;;9.00;;
51810;SDS011;52468;40.116;18.296;2023-08-12T01:56:09;10.97;;;9.53;;
51810;SDS011;52468;40.116;18.296;2023-08-12T01:58:37;13.80;;;9.03;;
51810;SDS011;52468;40.116;18.296;2023-08-12T02:01:05;10.73;;;9.60;;
51810;SDS011;52468;40.116;18.296;2023-08-12T02:03:33;15.60;;;10.33;;
51810;SDS011;52468;40.116;18.296;2023-08-12T02:06:01;10.23;;;9.20;;
51810;SDS011;52468;40.116;18.296;2023-08-12T02:08:29;13.63;;;9.37;;
51810;SDS011;52468;40.116;18.296;2023-08-12T02:10:57;11.17;;;9.73;;
51810;SDS011;52468;40.116;18.296;2023-08-12T02:13:25;14.90;;;10.17;;
51810;SDS011;52468;40.116;18.296;2023-08-12T02:15:53;16.97;;;10.57;;
51810;SDS011;52468;40.116;18.296;2023-08-12T02:18:22;13.07;;;8.50;;
51810;SDS011;52468;40.116;18.296;2023-08-12T02:20:50;12.97;;;9.40;;
51810;SDS011;52468;40.116;18.296;2023-08-12T02:23:18;12.03;;;8.23;;
51810;SDS011;52468;40.116;18.296;2023-08-12T02:25:46;9.83;;;8.83;;
51810;SDS011;52468;40.116;18.296;2023-08-12T02:28:14;12.57;;;8.63;;
51810;SDS011;52468;40.116;18.296;2023-08-12T02:30:42;11.77;;;9.40;;
51810;SDS011;52468;40.116;18.296;2023-08-12T02:33:10;11.83;;;8.00;;
51810;SDS011;52468;40.116;18.296;2023-08-12T02:35:38;16.13;;;10.67;;
51810;SDS011;52468;40.116;18.296;2023-08-12T02:38:06;11.00;;;8.43;;
51810;SDS011;52468;40.116;18.296;2023-08-12T02:40:34;11.73;;;8.00;;
51810;SDS011;52468;40.116;18.296;2023-08-12T02:43:02;13.17;;;9.63;;
51810;SDS011;52468;40.116;18.296;2023-08-12T02:45:30;13.20;;;9.13;;
51810;SDS011;52468;40.116;18.296;2023-08-12T02:47:59;14.23;;;8.80;;
51810;SDS011;52468;40.116;18.296;2023-08-12T02:50:27;12.17;;;8.70;;
51810;SDS011;52468;40.116;18.296;2023-08-12T02:52:55;10.53;;;7.50;;
51810;SDS011;52468;40.116;18.296;2023-08-12T02:55:22;11.40;;;8.20;;
51810;SDS011;52468;40.116;18.296;2023-08-12T02:57:50;12.63;;;8.47;;
51810;SDS011;52468;40.116;18.296;2023-08-12T03:00:18;14.50;;;8.27;;
51810;SDS011;52468;40.116;18.296;2023-08-12T03:02:46;11.40;;;8.60;;
51810;SDS011;52468;40.116;18.296;2023-08-12T03:05:15;14.10;;;8.63;;
51810;SDS011;52468;40.116;18.296;2023-08-12T03:07:43;12.63;;;8.57;;
51810;SDS011;52468;40.116;18.296;2023-08-12T03:10:12;13.53;;;9.30;;
51810;SDS011;52468;40.116;18.296;2023-08-12T03:12:40;16.13;;;8.60;;
51810;SDS011;52468;40.116;18.296;2023-08-12T03:15:08;14.37;;;9.07;;
51810;SDS011;52468;40.116;18.296;2023-08-12T03:17:37;12.03;;;8.43;;
51810;SDS011;52468;40.116;18.296;2023-08-12T03:20:07;20.13;;;9.47;;
51810;SDS011;52468;40.116;18.296;2023-08-12T03:22:37;12.20;;;8.17;;
51810;SDS011;52468;40.116;18.296;2023-08-12T03:25:05;12.47;;;8.30;;
51810;SDS011;52468;40.116;18.296;2023-08-12T03:27:34;10.50;;;7.53;;
51810;SDS011;52468;40.116;18.296;2023-08-12T03:30:02;12.67;;;8.33;;
51810;SDS011;52468;40.116;18.296;2023-08-12T03:32:31;11.37;;;7.40;;
51810;SDS011;52468;40.116;18.296;2023-08-12T03:35:00;10.63;;;7.90;;
51810;SDS011;52468;40.116;18.296;2023-08-12T03:37:28;15.20;;;8.83;;
51810;SDS011;52468;40.116;18.296;2023-08-12T03:39:56;15.87;;;8.77;;
51810;SDS011;52468;40.116;18.296;2023-08-12T03:42:26;11.47;;;8.07;;
51810;SDS011;52468;40.116;18.296;2023-08-12T03:44:54;11.07;;;8.80;;
51810;SDS011;52468;40.116;18.296;2023-08-12T03:47:22;11.87;;;8.60;;
51810;SDS011;52468;40.116;18.296;2023-08-12T03:49:51;11.63;;;8.60;;
51810;SDS011;52468;40.116;18.296;2023-08-12T03:52:19;12.07;;;8.30;;
51810;SDS011;52468;40.116;18.296;2023-08-12T03:54:47;13.07;;;8.77;;
51810;SDS011;52468;40.116;18.296;2023-08-12T03:57:16;13.40;;;8.07;;
51810;SDS011;52468;40.116;18.296;2023-08-12T03:59:44;26.20;;;9.33;;
51810;SDS011;52468;40.116;18.296;2023-08-12T04:02:12;15.67;;;9.80;;
51810;SDS011;52468;40.116;18.296;2023-08-12T04:04:40;12.77;;;9.40;;
51810;SDS011;52468;40.116;18.296;2023-08-12T04:07:10;13.30;;;9.27;;
51810;SDS011;52468;40.116;18.296;2023-08-12T04:09:38;11.80;;;8.30;;
51810;SDS011;52468;40.116;18.296;2023-08-12T04:12:06;16.50;;;9.30;;
51810;SDS011;52468;40.116;18.296;2023-08-12T04:14:34;19.20;;;9.27;;
51810;SDS011;52468;40.116;18.296;2023-08-12T04:17:02;10.83;;;8.67;;
51810;SDS011;52468;40.116;18.296;2023-08-12T04:19:31;13.47;;;8.60;;
51810;SDS011;52468;40.116;18.296;2023-08-12T04:21:59;8.40;;;7.07;;
51810;SDS011;52468;40.116;18.296;2023-08-12T04:24:28;11.90;;;8.13;;
51810;SDS011;52468;40.116;18.296;2023-08-12T04:26:57;13.33;;;7.57;;
51810;SDS011;52468;40.116;18.296;2023-08-12T04:29:26;13.03;;;7.27;;
51810;SDS011;52468;40.116;18.296;2023-08-12T04:31:55;10.40;;;7.03;;
51810;SDS011;52468;40.116;18.296;2023-08-12T04:34:23;11.07;;;7.47;;
51810;SDS011;52468;40.116;18.296;2023-08-12T04:36:52;13.50;;;7.40;;
51810;SDS011;52468;40.116;18.296;2023-08-12T04:39:20;9.83;;;6.97;;
51810;SDS011;52468;40.116;18.296;2023-08-12T04:41:49;9.40;;;6.70;;
51810;SDS011;52468;40.116;18.296;2023-08-12T04:44:18;12.63;;;6.10;;
51810;SDS011;52468;40.116;18.296;2023-08-12T04:46:47;11.00;;;7.10;;
51810;SDS011;52468;40.116;18.296;2023-08-12T04:49:16;15.17;;;6.97;;
51810;SDS011;52468;40.116;18.296;2023-08-12T04:51:45;10.33;;;6.27;;
51810;SDS011;52468;40.116;18.296;2023-08-12T04:54:13;7.93;;;6.20;;
51810;SDS011;52468;40.116;18.296;2023-08-12T04:56:42;17.27;;;7.23;;
51810;SDS011;52468;40.116;18.296;2023-08-12T04:59:10;11.43;;;6.30;;
51810;SDS011;52468;40.116;18.296;2023-08-12T05:01:39;10.77;;;5.53;;
51810;SDS011;52468;40.116;18.296;2023-08-12T05:04:14;10.10;;;6.23;;
51810;SDS011;52468;40.116;18.296;2023-08-12T05:06:42;10.00;;;6.23;;
51810;SDS011;52468;40.116;18.296;2023-08-12T05:09:10;9.83;;;5.70;;
51810;SDS011;52468;40.116;18.296;2023-08-12T05:11:39;9.33;;;5.73;;
51810;SDS011;52468;40.116;18.296;2023-08-12T05:14:07;14.93;;;6.83;;
51810;SDS011;52468;40.116;18.296;2023-08-12T05:16:35;15.23;;;5.23;;
51810;SDS011;52468;40.116;18.296;2023-08-12T05:19:03;7.13;;;4.67;;
51810;SDS011;52468;40.116;18.296;2023-08-12T05:21:31;8.77;;;5.10;;
51810;SDS011;52468;40.116;18.296;2023-08-12T05:23:59;6.90;;;4.93;;
51810;SDS011;52468;40.116;18.296;2023-08-12T05:26:29;8.00;;;4.57;;
51810;SDS011;52468;40.116;18.296;2023-08-12T05:28:57;10.10;;;5.03;;
51810;SDS011;52468;40.116;18.296;2023-08-12T05:31:25;6.53;;;4.33;;
51810;SDS011;52468;40.116;18.296;2023-08-12T05:33:53;8.37;;;5.37;;
51810;SDS011;52468;40.116;18.296;2023-08-12T05:36:21;7.87;;;4.87;;
51810;SDS011;52468;40.116;18.296;2023-08-12T05:38:49;15.10;;;5.83;;
51810;SDS011;52468;40.116;18.296;2023-08-12T05:41:17;22.93;;;5.47;;
51810;SDS011;52468;40.116;18.296;2023-08-12T05:43:45;8.00;;;4.67;;
51810;SDS011;52468;40.116;18.296;2023-08-12T05:46:14;7.33;;;5.13;;
51810;SDS011;52468;40.116;18.296;2023-08-12T05:48:42;7.20;;;4.67;;
51810;SDS011;52468;40.116;18.296;2023-08-12T05:51:10;10.10;;;5.67;;
51810;SDS011;52468;40.116;18.296;2023-08-12T05:53:38;9.70;;;4.80;;
51810;SDS011;52468;40.116;18.296;2023-08-12T05:56:06;8.93;;;5.57;;
51810;SDS011;52468;40.116;18.296;2023-08-12T05:58:34;10.53;;;6.03;;
51810;SDS011;52468;40.116;18.296;2023-08-12T06:01:02;8.93;;;5.57;;
51810;SDS011;52468;40.116;18.296;2023-08-12T06:03:30;9.33;;;5.87;;
51810;SDS011;52468;40.116;18.296;2023-08-12T06:05:58;7.73;;;5.03;;
51810;SDS011;52468;40.116;18.296;2023-08-12T06:08:26;9.17;;;5.30;;
51810;SDS011;52468;40.116;18.296;2023-08-12T06:10:54;7.90;;;5.13;;
51810;SDS011;52468;40.116;18.296;2023-08-12T06:13:22;13.60;;;6.13;;
51810;SDS011;52468;40.116;18.296;2023-08-12T06:15:50;6.67;;;5.73;;
51810;SDS011;52468;40.116;18.296;2023-08-12T06:18:18;11.63;;;6.23;;
51810;SDS011;52468;40.116;18.296;2023-08-12T06:20:46;9.57;;;6.03;;
51810;SDS011;52468;40.116;18.296;2023-08-12T06:23:15;10.53;;;7.63;;
51810;SDS011;52468;40.116;18.296;2023-08-12T06:25:43;12.10;;;6.80;;
51810;SDS011;52468;40.116;18.296;2023-08-12T06:28:11;11.67;;;6.67;;
51810;SDS011;52468;40.116;18.296;2023-08-12T06:30:39;9.43;;;6.87;;
51810;SDS011;52468;40.116;18.296;2023-08-12T06:33:07;7.60;;;6.43;;
51810;SDS011;52468;40.116;18.296;2023-08-12T06:35:35;9.90;;;6.23;;
51810;SDS011;52468;40.116;18.296;2023-08-12T06:38:03;6.90;;;5.73;;
51810;SDS011;52468;40.116;18.296;2023-08-12T06:40:31;8.37;;;5.83;;
51810;SDS011;52468;40.116;18.296;2023-08-12T06:42:59;8.60;;;5.83;;
51810;SDS011;52468;40.116;18.296;2023-08-12T06:45:28;8.60;;;6.15;;
51810;SDS011;52468;40.116;18.296;2023-08-12T06:47:55;7.28;;;5.78;;
51810;SDS011;52468;40.116;18.296;2023-08-12T06:50:23;10.83;;;6.77;;
51810;SDS011;52468;40.116;18.296;2023-08-12T06:52:51;11.18;;;5.57;;
51810;SDS011;52468;40.116;18.296;2023-08-12T06:55:19;8.15;;;5.28;;
51810;SDS011;52468;40.116;18.296;2023-08-12T06:57:47;6.82;;;5.68;;
51810;SDS011;52468;40.116;18.296;2023-08-12T07:00:15;6.70;;;5.13;;
51810;SDS011;52468;40.116;18.296;2023-08-12T07:02:43;10.10;;;6.03;;
51810;SDS011;52468;40.116;18.296;2023-08-12T07:05:11;9.15;;;5.90;;
51810;SDS011;52468;40.116;18.296;2023-08-12T07:07:39;9.85;;;5.75;;
51810;SDS011;52468;40.116;18.296;2023-08-12T07:10:07;8.75;;;5.25;;
51810;SDS011;52468;40.116;18.296;2023-08-12T07:12:35;9.32;;;5.93;;
51810;SDS011;52468;40.116;18.296;2023-08-12T07:15:04;9.65;;;5.60;;
51810;SDS011;52468;40.116;18.296;2023-08-12T07:17:32;6.43;;;5.75;;
51810;SDS011;52468;40.116;18.296;2023-08-12T07:20:00;5.78;;;5.05;;
51810;SDS011;52468;40.116;18.296;2023-08-12T07:22:28;9.52;;;5.00;;
51810;SDS011;52468;40.116;18.296;2023-08-12T07:24:55;6.45;;;5.85;;
51810;SDS011;52468;40.116;18.296;2023-08-12T07:27:27;7.05;;;4.95;;
51810;SDS011;52468;40.116;18.296;2023-08-12T07:29:55;7.60;;;6.13;;
51810;SDS011;52468;40.116;18.296;2023-08-12T07:32:23;6.35;;;4.38;;
51810;SDS011;52468;40.116;18.296;2023-08-12T07:34:51;11.00;;;7.30;;
51810;SDS011;52468;40.116;18.296;2023-08-12T07:37:19;7.30;;;5.40;;
51810;SDS011;52468;40.116;18.296;2023-08-12T07:39:47;6.28;;;5.03;;
51810;SDS011;52468;40.116;18.296;2023-08-12T07:42:15;6.25;;;5.22;;
51810;SDS011;52468;40.116;18.296;2023-08-12T07:44:43;7.75;;;6.22;;
51810;SDS011;52468;40.116;18.296;2023-08-12T07:47:10;8.43;;;5.60;;
51810;SDS011;52468;40.116;18.296;2023-08-12T07:49:38;8.32;;;5.55;;
51810;SDS011;52468;40.116;18.296;2023-08-12T07:52:06;8.98;;;5.25;;
51810;SDS011;52468;40.116;18.296;2023-08-12T07:54:35;6.78;;;4.72;;
51810;SDS011;52468;40.116;18.296;2023-08-12T07:57:03;8.68;;;5.07;;
51810;SDS011;52468;40.116;18.296;2023-08-12T07:59:31;6.90;;;3.83;;
51810;SDS011;52468;40.116;18.296;2023-08-12T08:01:58;7.35;;;4.32;;
51810;SDS011;52468;40.116;18.296;2023-08-12T08:04:26;7.75;;;3.95;;
51810;SDS011;52468;40.116;18.296;2023-08-12T08:06:54;6.13;;;3.90;;
51810;SDS011;52468;40.116;18.296;2023-08-12T08:09:22;4.97;;;4.13;;
51810;SDS011;52468;40.116;18.296;2023-08-12T08:11:50;7.63;;;4.53;;
51810;SDS011;52468;40.116;18.296;2023-08-12T08:14:19;4.60;;;3.55;;
51810;SDS011;52468;40.116;18.296;2023-08-12T08:16:47;4.13;;;3.35;;
51810;SDS011;52468;40.116;18.296;2023-08-12T08:19:15;4.20;;;3.75;;
51810;SDS011;52468;40.116;18.296;2023-08-12T08:21:43;5.00;;;3.47;;
51810;SDS011;52468;40.116;18.296;2023-08-12T08:24:11;4.38;;;3.40;;
51810;SDS011;52468;40.116;18.296;2023-08-12T08:26:40;3.45;;;3.15;;
51810;SDS011;52468;40.116;18.296;2023-08-12T08:29:07;4.13;;;3.72;;
51810;SDS011;52468;40.116;18.296;2023-08-12T08:31:36;6.60;;;3.60;;
51810;SDS011;52468;40.116;18.296;2023-08-12T08:34:04;6.15;;;3.28;;
51810;SDS011;52468;40.116;18.296;2023-08-12T08:36:32;7.25;;;4.15;;
51810;SDS011;52468;40.116;18.296;2023-08-12T08:38:59;5.47;;;3.45;;
51810;SDS011;52468;40.116;18.296;2023-08-12T08:41:28;3.35;;;2.88;;
51810;SDS011;52468;40.116;18.296;2023-08-12T08:44:01;4.75;;;3.13;;
51810;SDS011;52468;40.116;18.296;2023-08-12T08:46:33;5.38;;;3.25;;
51810;SDS011;52468;40.116;18.296;2023-08-12T08:49:01;5.38;;;3.38;;
51810;SDS011;52468;40.116;18.296;2023-08-12T08:51:31;3.45;;;2.88;;
51810;SDS011;52468;40.116;18.296;2023-08-12T08:53:59;5.85;;;2.65;;
51810;SDS011;52468;40.116;18.296;2023-08-12T08:56:32;4.88;;;2.85;;
51810;SDS011;52468;40.116;18.296;2023-08-12T08:59:03;4.70;;;2.83;;
51810;SDS011;52468;40.116;18.296;2023-08-12T09:01:31;4.82;;;3.08;;
51810;SDS011;52468;40.116;18.296;2023-08-12T09:03:59;4.18;;;3.30;;
51810;SDS011;52468;40.116;18.296;2023-08-12T09:06:28;6.57;;;4.22;;
51810;SDS011;52468;40.116;18.296;2023-08-12T09:08:57;3.00;;;2.70;;
51810;SDS011;52468;40.116;18.296;2023-08-12T09:11:27;4.38;;;3.20;;
51810;SDS011;52468;40.116;18.296;2023-08-12T09:13:56;4.10;;;3.03;;
51810;SDS011;52468;40.116;18.296;2023-08-12T09:16:24;2.70;;;2.50;;
51810;SDS011;52468;40.116;18.296;2023-08-12T09:18:55;4.70;;;3.42;;
51810;SDS011;52468;40.116;18.296;2023-08-12T09:21:23;3.83;;;3.10;;
51810;SDS011;52468;40.116;18.296;2023-08-12T09:23:52;3.75;;;3.42;;
51810;SDS011;52468;40.116;18.296;2023-08-12T09:26:20;3.75;;;3.45;;
51810;SDS011;52468;40.116;18.296;2023-08-12T09:28:48;5.70;;;3.70;;
51810;SDS011;52468;40.116;18.296;2023-08-12T09:31:23;5.40;;;3.35;;
51810;SDS011;52468;40.116;18.296;2023-08-12T09:33:52;3.50;;;3.20;;
51810;SDS011;52468;40.116;18.296;2023-08-12T09:36:21;3.40;;;3.10;;
51810;SDS011;52468;40.116;18.296;2023-08-12T09:38:49;5.15;;;3.35;;
51810;SDS011;52468;40.116;18.296;2023-08-12T09:41:18;3.83;;;3.10;;
51810;SDS011;52468;40.116;18.296;2023-08-12T09:43:46;3.28;;;2.97;;
51810;SDS011;52468;40.116;18.296;2023-08-12T09:46:14;4.40;;;2.65;;
51810;SDS011;52468;40.116;18.296;2023-08-12T09:48:42;3.58;;;3.28;;
51810;SDS011;52468;40.116;18.296;2023-08-12T09:51:10;4.03;;;3.20;;
51810;SDS011;52468;40.116;18.296;2023-08-12T09:53:38;3.38;;;3.08;;
51810;SDS011;52468;40.116;18.296;2023-08-12T09:56:11;5.32;;;3.05;;
51810;SDS011;52468;40.116;18.296;2023-08-12T09:58:39;4.38;;;3.13;;
51810;SDS011;52468;40.116;18.296;2023-08-12T10:01:10;3.72;;;3.03;;
51810;SDS011;52468;40.116;18.296;2023-08-12T10:03:40;7.03;;;3.08;;
51810;SDS011;52468;40.116;18.296;2023-08-12T10:06:10;3.33;;;3.03;;
51810;SDS011;52468;40.116;18.296;2023-08-12T10:08:40;3.13;;;2.83;;
51810;SDS011;52468;40.116;18.296;2023-08-12T10:11:08;3.88;;;3.15;;
51810;SDS011;52468;40.116;18.296;2023-08-12T10:13:39;3.30;;;3.03;;
51810;SDS011;52468;40.116;18.296;2023-08-12T10:16:08;2.97;;;2.38;;
51810;SDS011;52468;40.116;18.296;2023-08-12T10:18:39;2.83;;;2.63;;
51810;SDS011;52468;40.116;18.296;2023-08-12T10:21:08;6.05;;;3.72;;
51810;SDS011;52468;40.116;18.296;2023-08-12T10:23:39;3.20;;;2.85;;
51810;SDS011;52468;40.116;18.296;2023-08-12T10:26:09;6.88;;;2.85;;
51810;SDS011;52468;40.116;18.296;2023-08-12T10:28:39;2.63;;;2.42;;
51810;SDS011;52468;40.116;18.296;2023-08-12T10:31:07;7.45;;;2.58;;
51810;SDS011;52468;40.116;18.296;2023-08-12T10:33:38;3.42;;;3.10;;
51810;SDS011;52468;40.116;18.296;2023-08-12T10:36:07;3.13;;;2.90;;
51810;SDS011;52468;40.116;18.296;2023-08-12T10:38:35;5.25;;;2.60;;
51810;SDS011;52468;40.116;18.296;2023-08-12T10:43:54;2.53;;;2.33;;
51810;SDS011;52468;40.116;18.296;2023-08-12T10:46:35;2.65;;;2.40;;
51810;SDS011;52468;40.116;18.296;2023-08-12T10:51:43;3.47;;;2.53;;
51810;SDS011;52468;40.116;18.296;2023-08-12T11:05:01;2.78;;;2.58;;
51810;SDS011;52468;40.116;18.296;2023-08-12T11:07:39;2.75;;;2.55;;
51810;SDS011;52468;40.116;18.296;2023-08-12T11:10:16;2.40;;;2.20;;
51810;SDS011;52468;40.116;18.296;2023-08-12T11:15:43;2.75;;;2.47;;
51810;SDS011;52468;40.116;18.296;2023-08-12T11:18:14;3.35;;;3.00;;
51810;SDS011;52468;40.116;18.296;2023-08-12T11:20:47;2.70;;;2.50;;
51810;SDS011;52468;40.116;18.296;2023-08-12T11:23:16;3.38;;;2.80;;
51810;SDS011;52468;40.116;18.296;2023-08-12T11:25:44;3.65;;;2.83;;
51810;SDS011;52468;40.116;18.296;2023-08-12T11:28:13;3.67;;;2.72;;
51810;SDS011;52468;40.116;18.296;2023-08-12T11:30:41;3.00;;;2.70;;
51810;SDS011;52468;40.116;18.296;2023-08-12T11:33:12;3.28;;;2.50;;
51810;SDS011;52468;40.116;18.296;2023-08-12T11:35:40;4.38;;;2.78;;
51810;SDS011;52468;40.116;18.296;2023-08-12T11:38:08;2.97;;;2.78;;
51810;SDS011;52468;40.116;18.296;2023-08-12T11:40:36;4.63;;;2.40;;
51810;SDS011;52468;40.116;18.296;2023-08-12T11:43:04;2.80;;;2.50;;
51810;SDS011;52468;40.116;18.296;2023-08-12T11:45:33;2.67;;;2.47;;
51810;SDS011;52468;40.116;18.296;2023-08-12T11:48:01;3.30;;;2.67;;
51810;SDS011;52468;40.116;18.296;2023-08-12T11:50:30;2.63;;;2.40;;
51810;SDS011;52468;40.116;18.296;2023-08-12T11:52:58;3.85;;;2.30;;
51810;SDS011;52468;40.116;18.296;2023-08-12T11:55:26;2.90;;;2.70;;
51810;SDS011;52468;40.116;18.296;2023-08-12T11:57:54;2.72;;;2.53;;
51810;SDS011;52468;40.116;18.296;2023-08-12T12:00:22;2.78;;;2.58;;
51810;SDS011;52468;40.116;18.296;2023-08-12T12:02:53;2.80;;;2.40;;
51810;SDS011;52468;40.116;18.296;2023-08-12T12:05:23;3.17;;;2.65;;
51810;SDS011;52468;40.116;18.296;2023-08-12T12:07:55;3.58;;;3.10;;
51810;SDS011;52468;40.116;18.296;2023-08-12T12:12:57;4.53;;;2.88;;
51810;SDS011;52468;40.116;18.296;2023-08-12T12:15:25;3.42;;;3.13;;
51810;SDS011;52468;40.116;18.296;2023-08-12T12:17:53;3.25;;;2.85;;
51810;SDS011;52468;40.116;18.296;2023-08-12T12:20:21;3.55;;;3.20;;
51810;SDS011;52468;40.116;18.296;2023-08-12T12:22:49;3.15;;;2.50;;
51810;SDS011;52468;40.116;18.296;2023-08-12T12:25:17;3.90;;;3.38;;
51810;SDS011;52468;40.116;18.296;2023-08-12T12:27:48;5.75;;;3.50;;
51810;SDS011;52468;40.116;18.296;2023-08-12T12:30:16;4.55;;;2.80;;
51810;SDS011;52468;40.116;18.296;2023-08-12T12:32:46;3.63;;;3.15;;
51810;SDS011;52468;40.116;18.296;2023-08-12T12:35:14;4.35;;;3.03;;
51810;SDS011;52468;40.116;18.296;2023-08-12T12:37:43;3.30;;;2.35;;
51810;SDS011;52468;40.116;18.296;2023-08-12T12:40:11;3.10;;;2.80;;
51810;SDS011;52468;40.116;18.296;2023-08-12T12:42:39;4.90;;;3.20;;
51810;SDS011;52468;40.116;18.296;2023-08-12T12:45:07;3.20;;;2.80;;
51810;SDS011;52468;40.116;18.296;2023-08-12T12:47:35;2.92;;;2.63;;
51810;SDS011;52468;40.116;18.296;2023-08-12T12:50:05;3.25;;;2.83;;
51810;SDS011;52468;40.116;18.296;2023-08-12T12:52:33;4.53;;;2.92;;
51810;SDS011;52468;40.116;18.296;2023-08-12T12:55:01;3.20;;;2.75;;
51810;SDS011;52468;40.116;18.296;2023-08-12T12:57:31;2.67;;;2.38;;
51810;SDS011;52468;40.116;18.296;2023-08-12T12:59:59;3.25;;;2.63;;
51810;SDS011;52468;40.116;18.296;2023-08-12T13:02:27;3.28;;;2.78;;
51810;SDS011;52468;40.116;18.296;2023-08-12T13:04:55;3.20;;;2.88;;
51810;SDS011;52468;40.116;18.296;2023-08-12T13:07:23;2.90;;;2.70;;
51810;SDS011;52468;40.116;18.296;2023-08-12T13:09:51;2.78;;;2.58;;
51810;SDS011;52468;40.116;18.296;2023-08-12T13:12:19;3.03;;;2.70;;
51810;SDS011;52468;40.116;18.296;2023-08-12T13:14:47;2.65;;;2.25;;
51810;SDS011;52468;40.116;18.296;2023-08-12T13:17:15;2.70;;;2.45;;
51810;SDS011;52468;40.116;18.296;2023-08-12T13:19:42;4.88;;;3.08;;
51810;SDS011;52468;40.116;18.296;2023-08-12T13:22:10;3.15;;;2.78;;
51810;SDS011;52468;40.116;18.296;2023-08-12T13:24:38;3.63;;;2.47;;
51810;SDS011;52468;40.116;18.296;2023-08-12T13:27:06;3.78;;;2.60;;
51810;SDS011;52468;40.116;18.296;2023-08-12T13:29:35;2.55;;;2.35;;
51810;SDS011;52468;40.116;18.296;2023-08-12T13:32:02;4.88;;;2.67;;
51810;SDS011;52468;40.116;18.296;2023-08-12T13:34:30;3.15;;;2.63;;
51810;SDS011;52468;40.116;18.296;2023-08-12T13:36:58;3.45;;;3.00;;
51810;SDS011;52468;40.116;18.296;2023-08-12T13:39:26;4.32;;;2.92;;
51810;SDS011;52468;40.116;18.296;2023-08-12T13:41:54;2.58;;;2.38;;
51810;SDS011;52468;40.116;18.296;2023-08-12T13:44:23;4.80;;;2.60;;
51810;SDS011;52468;40.116;18.296;2023-08-12T13:46:51;3.95;;;2.58;;
51810;SDS011;52468;40.116;18.296;2023-08-12T13:49:19;2.50;;;2.30;;
51810;SDS011;52468;40.116;18.296;2023-08-12T13:51:47;3.55;;;2.58;;
51810;SDS011;52468;40.116;18.296;2023-08-12T13:54:15;2.63;;;2.42;;
51810;SDS011;52468;40.116;18.296;2023-08-12T13:56:43;2.97;;;2.58;;
51810;SDS011;52468;40.116;18.296;2023-08-12T13:59:11;3.65;;;2.85;;
51810;SDS011;52468;40.116;18.296;2023-08-12T14:01:39;2.45;;;2.25;;
51810;SDS011;52468;40.116;18.296;2023-08-12T14:04:08;2.50;;;2.30;;
51810;SDS011;52468;40.116;18.296;2023-08-12T14:06:36;2.90;;;2.45;;
51810;SDS011;52468;40.116;18.296;2023-08-12T14:09:04;2.90;;;2.15;;
51810;SDS011;52468;40.116;18.296;2023-08-12T14:11:32;2.60;;;2.40;;
51810;SDS011;52468;40.116;18.296;2023-08-12T14:14:00;2.50;;;2.30;;
51810;SDS011;52468;40.116;18.296;2023-08-12T14:16:28;2.97;;;2.67;;
51810;SDS011;52468;40.116;18.296;2023-08-12T14:18:56;3.40;;;2.60;;
51810;SDS011;52468;40.116;18.296;2023-08-12T14:21:24;1.90;;;1.80;;
51810;SDS011;52468;40.116;18.296;2023-08-12T14:23:51;3.42;;;2.45;;
51810;SDS011;52468;40.116;18.296;2023-08-12T14:26:19;2.15;;;2.05;;
51810;SDS011;52468;40.116;18.296;2023-08-12T14:28:47;2.78;;;2.30;;
51810;SDS011;52468;40.116;18.296;2023-08-12T14:31:15;2.00;;;1.90;;
51810;SDS011;52468;40.116;18.296;2023-08-12T14:33:43;3.20;;;2.13;;
51810;SDS011;52468;40.116;18.296;2023-08-12T14:36:11;2.97;;;1.98;;
51810;SDS011;52468;40.116;18.296;2023-08-12T14:38:39;3.90;;;2.30;;
51810;SDS011;52468;40.116;18.296;2023-08-12T14:41:07;2.42;;;2.22;;
51810;SDS011;52468;40.116;18.296;2023-08-12T14:43:35;3.83;;;2.22;;
51810;SDS011;52468;40.116;18.296;2023-08-12T14:46:04;2.30;;;2.10;;
51810;SDS011;52468;40.116;18.296;2023-08-12T14:48:32;2.15;;;1.95;;
51810;SDS011;52468;40.116;18.296;2023-08-12T14:51:00;2.60;;;2.40;;
51810;SDS011;52468;40.116;18.296;2023-08-12T14:53:27;4.45;;;2.13;;
51810;SDS011;52468;40.116;18.296;2023-08-12T14:55:56;2.30;;;2.00;;
51810;SDS011;52468;40.116;18.296;2023-08-12T14:58:23;2.17;;;1.95;;